Time;durP1;ratioP1;P1;durP2;ratioP2;P2;SDS_P1;SDS_P2;PMS_P1;PMS_P2;Temp;Humidity;BMP_temperature;BMP_pressure;BME280_temperature;BME280_humidity;BME280_pressure;Samples;Min_cycle;Max_cycle;Signal;HPM_P1;HPM_P2
2022/11/24 00:01:16;;;;;;;;;;;18.00;44.40;16.70;99899.00;;;;5045752;28;19916;-74
2022/11/24 00:03:43;;;;;;;;;;;17.90;44.40;16.70;99907.00;;;;5048275;28;20286;-74
2022/11/24 00:06:09;;;;;;;;;;;18.00;44.50;16.70;99917.00;;;;5059664;28;20374;-74
2022/11/24 00:08:35;;;;;;;;;;;18.00;44.50;16.70;99906.00;;;;5043154;28;19935;-74
2022/11/24 00:11:09;;;;;;;;;;;18.00;44.50;16.70;99913.00;;;;5044683;28;19932;-74
2022/11/24 00:13:34;;;;;;;;;;;17.90;44.40;16.70;99920.00;;;;5063406;28;19958;-74
2022/11/24 00:16:14;;;;;;;;;;;18.00;44.40;16.70;99917.00;;;;5060426;28;20355;-74
2022/11/24 00:18:40;;;;;;;;;;;18.00;44.50;16.70;99920.00;;;;5039038;28;19912;-74
2022/11/24 00:21:05;;;;;;;;;;;17.90;44.40;16.70;99919.00;;;;5059916;28;19999;-74
2022/11/24 00:23:31;;;;;;;;;;;18.00;44.40;16.70;99922.00;;;;5066882;28;20000;-74
2022/11/24 00:26:08;;;;;;;;;;;18.00;44.40;16.70;99926.00;;;;5043129;28;20358;-74
2022/11/24 00:28:34;;;;;;;;;;;17.90;44.40;16.70;99924.00;;;;5062439;28;19971;-74
2022/11/24 00:31:00;;;;;;;;;;;17.90;44.40;16.70;99928.00;;;;5060827;28;19978;-74
2022/11/24 00:33:25;;;;;;;;;;;18.00;44.40;16.70;99928.00;;;;5041557;28;20359;-74
2022/11/24 00:35:55;;;;;;;;;;;18.00;44.50;16.70;99929.00;;;;5060046;28;19913;-74
2022/11/24 00:38:21;;;;;;;;;;;17.90;44.40;16.70;99930.00;;;;5055583;28;19947;-74
2022/11/24 00:40:46;;;;;;;;;;;18.00;44.50;16.70;99933.00;;;;5048709;28;19923;-74
2022/11/24 00:43:12;;;;;;;;;;;18.00;44.50;16.70;99932.00;;;;5060766;28;19912;-74
2022/11/24 00:45:38;;;;;;;;;;;17.90;44.40;16.70;99936.00;;;;5060139;28;20354;-74
2022/11/24 00:48:03;;;;;;;;;;;18.00;44.50;16.70;99933.00;;;;5057220;28;19917;-74
2022/11/24 00:50:29;;;;;;;;;;;17.90;44.40;16.70;99929.00;;;;5060364;28;19919;-74
2022/11/24 00:52:55;;;;;;;;;;;17.90;44.40;16.70;99934.00;;;;5062851;28;19919;-75
2022/11/24 00:55:20;;;;;;;;;;;18.00;44.50;16.70;99934.00;;;;5066091;28;19913;-74
2022/11/24 00:57:46;;;;;;;;;;;17.90;44.40;16.70;99937.00;;;;5065876;28;19916;-74
2022/11/24 01:00:12;;;;;;;;;;;17.90;44.40;16.70;99936.00;;;;5062396;28;19944;-74
2022/11/24 01:02:38;;;;;;;;;;;17.90;44.40;16.70;99934.00;;;;5065775;28;19961;-74
2022/11/24 01:05:04;;;;;;;;;;;18.00;44.50;16.70;99934.00;;;;5061818;28;20429;-74
2022/11/24 01:07:30;;;;;;;;;;;17.90;44.40;16.70;99935.00;;;;5063144;28;19939;-74
2022/11/24 01:09:55;;;;;;;;;;;17.90;44.40;16.70;99942.00;;;;5059929;28;20373;-74
2022/11/24 01:12:21;;;;;;;;;;;17.90;44.40;16.70;99948.00;;;;5066197;28;19909;-74
2022/11/24 01:14:47;;;;;;;;;;;17.90;44.50;16.70;99949.00;;;;5064257;28;19966;-74
2022/11/24 01:17:12;;;;;;;;;;;17.90;44.40;16.70;99948.00;;;;5062870;28;19912;-74
2022/11/24 01:19:38;;;;;;;;;;;17.90;44.40;16.70;99955.00;;;;5062863;28;19912;-74
2022/11/24 01:22:04;;;;;;;;;;;17.90;44.50;16.70;99953.00;;;;5058905;28;19934;-74
2022/11/24 01:24:29;;;;;;;;;;;17.90;44.40;16.70;99950.00;;;;5062827;28;20407;-75
2022/11/24 01:26:55;;;;;;;;;;;17.90;44.50;16.70;99952.00;;;;5059030;28;19917;-74
2022/11/24 01:29:21;;;;;;;;;;;17.90;44.50;16.70;99959.00;;;;5062793;28;19919;-74
2022/11/24 01:31:46;;;;;;;;;;;18.00;44.50;16.70;99957.00;;;;5062366;28;20366;-74
2022/11/24 01:34:12;;;;;;;;;;;17.90;44.50;16.70;99960.00;;;;5040316;28;19916;-74
2022/11/24 01:36:38;;;;;;;;;;;17.80;44.50;16.70;99963.00;;;;5062976;28;19912;-74
2022/11/24 01:39:04;;;;;;;;;;;17.90;44.50;16.70;99964.00;;;;5058335;28;19995;-74
2022/11/24 01:41:30;;;;;;;;;;;17.90;44.50;16.70;99964.00;;;;5047135;28;19958;-74
2022/11/24 01:43:56;;;;;;;;;;;17.90;44.50;16.70;99970.00;;;;5048144;28;19920;-74
2022/11/24 01:46:25;;;;;;;;;;;17.90;44.50;16.70;99966.00;;;;5047777;28;19925;-74
2022/11/24 01:49:02;;;;;;;;;;;17.90;44.50;16.70;99966.00;;;;5064154;28;19924;-74
2022/11/24 01:51:29;;;;;;;;;;;17.80;44.50;16.70;99966.00;;;;5048312;28;20496;-74
2022/11/24 01:54:04;;;;;;;;;;;17.90;44.50;16.70;99971.00;;;;5046306;28;19912;-74
2022/11/24 01:56:30;;;;;;;;;;;17.90;44.50;16.70;99980.00;;;;5050532;28;19921;-74
2022/11/24 01:58:57;;;;;;;;;;;17.90;44.50;16.70;99981.00;;;;5040812;28;20523;-74
2022/11/24 02:01:23;;;;;;;;;;;17.90;44.50;16.70;99975.00;;;;5048211;28;19907;-74
2022/11/24 02:03:48;;;;;;;;;;;17.80;44.50;16.70;99976.00;;;;5043096;28;19913;-74
2022/11/24 02:06:20;;;;;;;;;;;17.90;44.50;16.70;99983.00;;;;5062215;28;19962;-74
2022/11/24 02:08:51;;;;;;;;;;;17.90;44.60;16.70;99987.00;;;;5042063;28;19967;-74
2022/11/24 02:11:17;;;;;;;;;;;18.00;45.40;16.70;99988.00;;;;5059514;28;19919;-74
2022/11/24 02:13:43;;;;;;;;;;;17.90;44.60;16.70;99996.00;;;;5043758;28;19920;-74
2022/11/24 02:16:09;;;;;;;;;;;17.90;44.60;16.70;99996.00;;;;5047590;28;19920;-74
2022/11/24 02:18:36;;;;;;;;;;;17.90;44.60;16.70;99999.00;;;;5048528;28;19916;-74
2022/11/24 02:21:02;;;;;;;;;;;18.00;44.70;16.70;100001.00;;;;5045191;28;19991;-74
2022/11/24 02:23:34;;;;;;;;;;;17.90;44.60;16.70;100009.00;;;;5033348;28;19920;-74
2022/11/24 02:26:09;;;;;;;;;;;17.80;44.60;16.70;100014.00;;;;5041393;28;20480;-74
2022/11/24 02:28:35;;;;;;;;;;;17.90;44.60;16.70;100015.00;;;;5058360;28;20441;-75
2022/11/24 02:31:00;;;;;;;;;;;17.90;44.70;16.70;100011.00;;;;5045433;28;19916;-74
2022/11/24 02:33:26;;;;;;;;;;;17.90;44.70;16.70;100004.00;;;;5046015;28;19923;-75
2022/11/24 02:35:52;;;;;;;;;;;17.90;44.60;16.70;100019.00;;;;5059115;28;19938;-74
2022/11/24 02:38:18;;;;;;;;;;;17.90;44.60;16.70;100019.00;;;;5065655;28;19908;-74
2022/11/24 02:40:46;;;;;;;;;;;17.90;44.60;16.70;100013.00;;;;5045492;28;20068;-74
2022/11/24 02:43:13;;;;;;;;;;;17.80;44.60;16.70;100015.00;;;;5046276;28;19912;-74
2022/11/24 02:45:39;;;;;;;;;;;17.80;44.60;16.70;100008.00;;;;5043881;28;20110;-74
2022/11/24 02:48:05;;;;;;;;;;;17.90;44.60;16.70;100011.00;;;;5061448;28;20282;-74
2022/11/24 02:50:30;;;;;;;;;;;17.90;44.60;16.70;100012.00;;;;5057092;28;19919;-74
2022/11/24 02:52:56;;;;;;;;;;;17.90;44.60;16.70;100020.00;;;;5045570;28;19916;-74
2022/11/24 02:55:22;;;;;;;;;;;17.90;44.60;16.70;100014.00;;;;5059241;28;19935;-74
2022/11/24 02:57:48;;;;;;;;;;;17.90;44.60;16.70;100025.00;;;;5043864;28;19917;-74
2022/11/24 03:00:14;;;;;;;;;;;17.90;44.60;16.70;100028.00;;;;5059936;28;20382;-74
2022/11/24 03:02:40;;;;;;;;;;;17.80;44.60;16.70;100033.00;;;;5046027;28;20541;-74
2022/11/24 03:05:05;;;;;;;;;;;18.00;44.70;16.70;100037.00;;;;5042368;28;19916;-74
2022/11/24 03:07:31;;;;;;;;;;;18.00;44.70;16.70;100042.00;;;;5043109;28;19920;-74
2022/11/24 03:09:57;;;;;;;;;;;18.00;44.70;16.70;100048.00;;;;5059977;28;19919;-74
2022/11/24 03:12:22;;;;;;;;;;;18.00;44.70;16.70;100049.00;;;;5064682;28;19908;-74
2022/11/24 03:14:48;;;;;;;;;;;17.90;44.60;16.70;100051.00;;;;5059551;28;19966;-74
2022/11/24 03:17:14;;;;;;;;;;;17.90;44.70;16.70;100046.00;;;;5064975;28;19908;-74
2022/11/24 03:19:39;;;;;;;;;;;18.00;44.70;16.70;100053.00;;;;5057208;28;20382;-74
2022/11/24 03:22:05;;;;;;;;;;;18.00;44.70;16.70;100053.00;;;;5059162;28;19920;-74
2022/11/24 03:24:31;;;;;;;;;;;17.90;44.60;16.70;100061.00;;;;5056599;28;19917;-74
2022/11/24 03:26:56;;;;;;;;;;;18.00;45.40;16.70;100055.00;;;;5061077;28;20256;-74
2022/11/24 03:29:22;;;;;;;;;;;18.10;44.70;16.70;100049.00;;;;5061384;28;19923;-74
2022/11/24 03:31:48;;;;;;;;;;;18.00;44.70;16.70;100060.00;;;;5061961;28;19924;-74
2022/11/24 03:34:13;;;;;;;;;;;17.90;44.60;16.70;100053.00;;;;5040748;28;19918;-74
2022/11/24 03:36:39;;;;;;;;;;;18.00;44.70;16.70;100059.00;;;;5057167;28;19966;-74
2022/11/24 03:39:05;;;;;;;;;;;18.00;44.70;16.70;100061.00;;;;5054006;28;19917;-74
2022/11/24 03:41:31;;;;;;;;;;;18.00;44.70;16.70;100065.00;;;;5060866;28;19912;-74
2022/11/24 03:43:57;;;;;;;;;;;18.00;44.70;16.70;100066.00;;;;5065067;28;19923;-74
2022/11/24 03:46:22;;;;;;;;;;;18.00;44.70;16.70;100064.00;;;;5060884;28;19913;-74
2022/11/24 03:48:48;;;;;;;;;;;18.00;45.40;16.70;100078.00;;;;5059033;28;20374;-74
2022/11/24 03:51:14;;;;;;;;;;;18.00;44.70;16.70;100076.00;;;;5061073;28;19958;-74
2022/11/24 03:53:40;;;;;;;;;;;18.00;44.70;16.70;100084.00;;;;5036108;28;19912;-74
2022/11/24 03:56:05;;;;;;;;;;;18.00;44.70;16.70;100086.00;;;;5043922;28;19923;-74
2022/11/24 03:58:31;;;;;;;;;;;18.00;44.70;16.80;100084.00;;;;5043832;28;20356;-74
2022/11/24 04:00:57;;;;;;;;;;;17.90;44.60;16.70;100082.00;;;;5024492;28;19927;-74
2022/11/24 04:03:23;;;;;;;;;;;18.00;44.70;16.80;100080.00;;;;5049861;28;19912;-74
2022/11/24 04:05:48;;;;;;;;;;;18.10;44.70;16.70;100086.00;;;;5067560;28;19918;-74
2022/11/24 04:08:14;;;;;;;;;;;18.10;44.70;16.70;100078.00;;;;5041855;28;19928;-74
2022/11/24 04:10:40;;;;;;;;;;;18.00;44.70;16.70;100083.00;;;;5064170;28;19909;-74
2022/11/24 04:13:13;;;;;;;;;;;18.00;44.70;16.70;100093.00;;;;5068130;28;19927;-74
2022/11/24 04:15:39;;;;;;;;;;;18.00;44.70;16.70;100091.00;;;;5062021;28;19935;-74
2022/11/24 04:18:05;;;;;;;;;;;17.90;44.70;16.70;100088.00;;;;5047111;28;19912;-74
2022/11/24 04:20:30;;;;;;;;;;;18.00;44.70;16.70;100099.00;;;;5064058;28;19995;-74
2022/11/24 04:22:56;;;;;;;;;;;18.00;44.70;16.70;100101.00;;;;5065924;28;19912;-74
2022/11/24 04:25:22;;;;;;;;;;;18.00;44.70;16.70;100106.00;;;;5062647;28;19916;-74
2022/11/24 04:27:51;;;;;;;;;;;18.00;44.70;16.70;100108.00;;;;5060520;28;19962;-74
2022/11/24 04:30:17;;;;;;;;;;;18.00;44.70;16.70;100109.00;;;;5049680;28;19967;-74
2022/11/24 04:32:43;;;;;;;;;;;18.00;44.70;16.70;100109.00;;;;5044699;28;19909;-74
2022/11/24 04:35:09;;;;;;;;;;;18.10;44.80;16.70;100115.00;;;;5059385;28;19924;-74
2022/11/24 04:37:34;;;;;;;;;;;18.00;44.70;16.70;100115.00;;;;5045591;28;20326;-74
2022/11/24 04:40:00;;;;;;;;;;;18.00;44.80;16.70;100110.00;;;;5060145;28;19917;-74
2022/11/24 04:42:26;;;;;;;;;;;18.00;44.70;16.70;100116.00;;;;5057608;28;19939;-74
2022/11/24 04:44:51;;;;;;;;;;;18.00;44.70;16.80;100123.00;;;;5046866;28;19913;-74
2022/11/24 04:47:21;;;;;;;;;;;18.00;44.70;16.80;100119.00;;;;5059540;28;19924;-74
2022/11/24 04:49:47;;;;;;;;;;;18.00;44.70;16.80;100119.00;;;;5039570;28;19923;-74
2022/11/24 04:52:14;;;;;;;;;;;18.10;44.80;16.80;100129.00;;;;5040817;28;20413;-74
2022/11/24 04:54:40;;;;;;;;;;;18.00;44.70;16.80;100131.00;;;;5056911;28;19916;-74
2022/11/24 04:57:05;;;;;;;;;;;18.00;44.70;16.80;100124.00;;;;5057483;28;20352;-74
2022/11/24 04:59:31;;;;;;;;;;;18.00;44.70;16.80;100134.00;;;;5058073;28;19916;-74
2022/11/24 05:01:57;;;;;;;;;;;18.00;44.70;16.80;100131.00;;;;5062152;28;19958;-74
2022/11/24 05:04:22;;;;;;;;;;;18.10;44.80;16.80;100132.00;;;;5063001;28;19912;-74
2022/11/24 05:06:48;;;;;;;;;;;18.00;44.70;16.70;100141.00;;;;5045409;28;19916;-74
2022/11/24 05:09:14;;;;;;;;;;;18.00;44.70;16.70;100131.00;;;;5065579;28;20209;-74
2022/11/24 05:11:40;;;;;;;;;;;18.20;44.80;16.80;100143.00;;;;5036481;28;20267;-74
2022/11/24 05:14:06;;;;;;;;;;;17.90;44.60;16.80;100145.00;;;;5045778;28;19920;-74
2022/11/24 05:16:32;;;;;;;;;;;18.00;44.80;16.80;100146.00;;;;5048793;28;19945;-74
2022/11/24 05:18:57;;;;;;;;;;;18.00;44.70;16.80;100148.00;;;;5063550;28;19912;-75
2022/11/24 05:21:23;;;;;;;;;;;18.00;44.70;16.70;100151.00;;;;5066024;28;19919;-74
2022/11/24 05:23:49;;;;;;;;;;;18.00;44.70;16.80;100162.00;;;;5061116;28;19982;-74
2022/11/24 05:26:14;;;;;;;;;;;18.00;44.70;16.80;100156.00;;;;5063812;28;19917;-74
2022/11/24 05:28:40;;;;;;;;;;;18.00;44.70;16.80;100155.00;;;;5044789;28;19959;-74
2022/11/24 05:31:06;;;;;;;;;;;18.10;44.80;16.80;100154.00;;;;5047173;28;19916;-74
2022/11/24 05:33:32;;;;;;;;;;;18.00;44.70;16.80;100165.00;;;;5064099;28;21966;-74
2022/11/24 05:36:02;;;;;;;;;;;18.00;44.70;16.70;100165.00;;;;5062255;28;19952;-74
2022/11/24 05:38:28;;;;;;;;;;;18.00;44.70;16.80;100167.00;;;;5058357;28;20278;-74
2022/11/24 05:40:59;;;;;;;;;;;17.90;44.70;16.70;100166.00;;;;5058031;28;20345;-74
2022/11/24 05:43:24;;;;;;;;;;;18.00;44.70;16.70;100171.00;;;;5058722;28;19947;-74
2022/11/24 05:45:50;;;;;;;;;;;18.00;44.70;16.70;100172.00;;;;5060919;28;19938;-74
2022/11/24 05:48:16;;;;;;;;;;;18.00;44.80;16.80;100172.00;;;;5063087;28;19960;-74
2022/11/24 05:50:41;;;;;;;;;;;18.00;44.70;16.70;100176.00;;;;5064558;28;20285;-74
2022/11/24 05:53:09;;;;;;;;;;;18.00;44.80;16.70;100179.00;;;;5064671;28;19913;-74
2022/11/24 05:55:35;;;;;;;;;;;18.00;44.70;16.70;100183.00;;;;5045354;28;19912;-74
2022/11/24 05:58:02;;;;;;;;;;;18.00;44.80;16.70;100190.00;;;;5059016;28;19920;-74
2022/11/24 06:00:28;;;;;;;;;;;18.00;44.80;16.70;100189.00;;;;5047584;28;20022;-75
2022/11/24 06:02:53;;;;;;;;;;;18.00;44.80;16.70;100188.00;;;;5050347;28;19913;-74
2022/11/24 06:05:19;;;;;;;;;;;17.90;44.70;16.80;100192.00;;;;5062101;28;19924;-75
2022/11/24 06:07:45;;;;;;;;;;;18.00;44.80;16.70;100185.00;;;;5058713;28;19916;-74
2022/11/24 06:10:10;;;;;;;;;;;18.00;44.80;16.80;100196.00;;;;5044646;28;19916;-75
2022/11/24 06:12:36;;;;;;;;;;;18.10;44.80;16.80;100201.00;;;;5060223;28;20183;-74
2022/11/24 06:15:02;;;;;;;;;;;18.00;44.80;16.80;100204.00;;;;5065270;28;19912;-74
2022/11/24 06:17:28;;;;;;;;;;;18.00;44.80;16.80;100207.00;;;;5044561;28;19916;-74
2022/11/24 06:19:53;;;;;;;;;;;18.00;44.80;16.80;100210.00;;;;5042115;28;19920;-74
2022/11/24 06:22:19;;;;;;;;;;;18.00;44.80;16.80;100216.00;;;;5063249;28;20388;-74
2022/11/24 06:24:45;;;;;;;;;;;18.00;44.80;16.80;100216.00;;;;5065174;28;19921;-74
2022/11/24 06:27:11;;;;;;;;;;;17.90;44.70;16.80;100221.00;;;;5059744;28;19925;-74
2022/11/24 06:29:37;;;;;;;;;;;18.00;44.80;16.80;100218.00;;;;5050769;28;19951;-74
2022/11/24 06:32:03;;;;;;;;;;;18.10;44.80;16.70;100234.00;;;;5042935;28;19940;-74
2022/11/24 06:34:29;;;;;;;;;;;18.00;44.80;16.70;100226.00;;;;5047591;28;19970;-74
2022/11/24 06:36:55;;;;;;;;;;;18.00;44.80;16.70;100234.00;;;;5059438;28;20289;-74
2022/11/24 06:39:20;;;;;;;;;;;18.00;44.80;16.80;100242.00;;;;5060264;28;19919;-74
2022/11/24 06:41:48;;;;;;;;;;;18.00;44.80;16.70;100244.00;;;;5061874;28;19947;-75
2022/11/24 06:44:14;;;;;;;;;;;18.10;44.80;16.80;100247.00;;;;5064643;28;20297;-74
2022/11/24 06:46:40;;;;;;;;;;;18.00;44.80;16.80;100246.00;;;;5046551;28;19969;-74
2022/11/24 06:49:05;;;;;;;;;;;18.00;44.80;16.80;100248.00;;;;5048274;28;20358;-74
2022/11/24 06:51:31;;;;;;;;;;;18.00;44.80;16.70;100239.00;;;;5057860;28;19916;-74
2022/11/24 06:53:57;;;;;;;;;;;18.00;44.80;16.80;100252.00;;;;5065834;28;19966;-74
2022/11/24 06:56:23;;;;;;;;;;;18.00;44.80;16.80;100251.00;;;;5046308;28;19923;-74
2022/11/24 06:58:49;;;;;;;;;;;18.00;44.80;16.70;100246.00;;;;5041724;28;20610;-74
2022/11/24 07:01:25;;;;;;;;;;;18.00;44.80;16.70;100254.00;;;;5063566;28;19954;-74
2022/11/24 07:03:51;;;;;;;;;;;18.00;44.80;16.80;100258.00;;;;5057545;28;19959;-74
2022/11/24 07:06:17;;;;;;;;;;;18.00;44.80;16.80;100258.00;;;;5063153;28;19912;-74
2022/11/24 07:08:43;;;;;;;;;;;18.00;44.80;16.80;100268.00;;;;5057682;28;19920;-74
2022/11/24 07:11:10;;;;;;;;;;;18.10;44.90;16.80;100272.00;;;;5059979;28;19917;-74
2022/11/24 07:13:36;;;;;;;;;;;18.00;44.80;16.80;100275.00;;;;5044281;28;20537;-74
2022/11/24 07:16:16;;;;;;;;;;;18.00;44.90;16.80;100286.00;;;;5065660;28;19920;-74
2022/11/24 07:18:42;;;;;;;;;;;18.00;44.80;16.80;100288.00;;;;5059195;28;19913;-74
2022/11/24 07:21:08;;;;;;;;;;;18.00;44.80;16.70;100291.00;;;;5043635;28;19916;-74
2022/11/24 07:23:34;;;;;;;;;;;18.00;44.80;16.70;100299.00;;;;5057557;28;20411;-74
2022/11/24 07:26:06;;;;;;;;;;;18.00;44.90;16.70;100296.00;;;;5058803;28;19912;-74
2022/11/24 07:28:32;;;;;;;;;;;18.00;44.90;16.70;100315.00;;;;5038801;28;19924;-74
2022/11/24 07:30:58;;;;;;;;;;;18.00;44.90;16.70;100313.00;;;;5042482;28;19936;-74
2022/11/24 07:33:25;;;;;;;;;;;18.00;44.90;16.70;100321.00;;;;5047066;28;19916;-74
2022/11/24 07:35:51;;;;;;;;;;;18.10;45.00;16.70;100312.00;;;;5044281;28;19917;-73
2022/11/24 07:38:16;;;;;;;;;;;18.00;44.90;16.70;100332.00;;;;5063275;28;19955;-74
2022/11/24 07:40:42;;;;;;;;;;;18.00;44.90;16.70;100338.00;;;;5063077;28;20676;-74
2022/11/24 07:43:08;;;;;;;;;;;18.00;44.90;16.70;100346.00;;;;5060581;28;19920;-74
2022/11/24 07:45:33;;;;;;;;;;;18.00;44.90;16.70;100345.00;;;;5063605;28;19920;-74
2022/11/24 07:47:59;;;;;;;;;;;18.00;44.90;16.70;100349.00;;;;5065630;28;20325;-74
2022/11/24 07:50:25;;;;;;;;;;;17.90;44.90;16.70;100354.00;;;;5062330;28;19923;-74
2022/11/24 07:52:50;;;;;;;;;;;18.00;45.00;16.70;100363.00;;;;5068249;28;19920;-74
2022/11/24 07:55:16;;;;;;;;;;;18.10;45.10;16.70;100365.00;;;;5064667;28;20345;-74
2022/11/24 07:57:42;;;;;;;;;;;18.00;45.10;16.60;100364.00;;;;5063983;28;19917;-74
2022/11/24 08:00:08;;;;;;;;;;;17.90;45.10;16.60;100373.00;;;;5062444;28;20373;-74
2022/11/24 08:02:34;;;;;;;;;;;17.90;45.10;16.60;100378.00;;;;5064784;28;19923;-74
2022/11/24 08:04:59;;;;;;;;;;;18.00;45.20;16.60;100382.00;;;;5063031;28;20358;-74
2022/11/24 08:07:25;;;;;;;;;;;18.00;45.20;16.60;100383.00;;;;5068397;28;19919;-74
2022/11/24 08:09:51;;;;;;;;;;;17.80;45.10;16.60;100383.00;;;;5063658;28;19917;-74
2022/11/24 08:12:20;;;;;;;;;;;17.90;45.10;16.50;100386.00;;;;5067831;28;20650;-74
2022/11/24 08:14:49;;;;;;;;;;;17.90;45.10;16.60;100386.00;;;;5061958;28;20362;-74
2022/11/24 08:17:16;;;;;;;;;;;17.90;45.10;16.60;100390.00;;;;5068885;28;19948;-74
2022/11/24 08:19:42;;;;;;;;;;;17.90;45.10;16.60;100388.00;;;;5059871;28;19958;-74
2022/11/24 08:22:07;;;;;;;;;;;17.80;45.80;16.60;100392.00;;;;5064067;28;19913;-74
2022/11/24 08:24:33;;;;;;;;;;;17.80;45.10;16.60;100392.00;;;;5041778;28;19966;-74
2022/11/24 08:26:59;;;;;;;;;;;17.90;45.20;16.60;100400.00;;;;5045472;28;19924;-74
2022/11/24 08:29:28;;;;;;;;;;;17.90;45.20;16.60;100395.00;;;;5060449;28;19924;-74
2022/11/24 08:31:56;;;;;;;;;;;17.90;45.20;16.60;100397.00;;;;5060194;28;20420;-75
2022/11/24 08:34:24;;;;;;;;;;;17.90;45.20;16.70;100404.00;;;;5046002;28;19986;-74
2022/11/24 08:36:50;;;;;;;;;;;17.90;45.90;16.70;100402.00;;;;5062565;28;19916;-74
2022/11/24 08:39:16;;;;;;;;;;;17.90;45.20;16.70;100404.00;;;;5033433;28;20440;-74
2022/11/24 08:41:42;;;;;;;;;;;17.90;45.20;16.70;100411.00;;;;5065251;28;20294;-74
2022/11/24 08:44:09;;;;;;;;;;;17.90;45.20;16.70;100409.00;;;;5046811;28;20385;-74
2022/11/24 08:46:35;;;;;;;;;;;17.90;45.20;16.70;100418.00;;;;5058411;28;19947;-74
2022/11/24 08:49:01;;;;;;;;;;;18.00;45.30;16.70;100409.00;;;;5066915;28;19958;-74
2022/11/24 08:51:26;;;;;;;;;;;17.80;45.10;16.70;100433.00;;;;5059864;28;19920;-74
2022/11/24 08:53:56;;;;;;;;;;;17.90;45.20;16.70;100429.00;;;;5061043;28;19999;-74
2022/11/24 08:56:22;;;;;;;;;;;18.00;45.30;16.70;100436.00;;;;5061131;28;19916;-74
2022/11/24 08:58:48;;;;;;;;;;;18.00;45.30;16.70;100439.00;;;;5058251;28;19908;-74
2022/11/24 09:01:15;;;;;;;;;;;17.90;45.30;16.70;100428.00;;;;5061005;28;19959;-74
2022/11/24 09:03:41;;;;;;;;;;;18.00;45.30;16.70;100433.00;;;;5048027;28;19920;-74
2022/11/24 09:06:07;;;;;;;;;;;18.10;45.30;16.70;100443.00;;;;5041837;28;19912;-74
2022/11/24 09:08:33;;;;;;;;;;;18.00;45.30;16.70;100447.00;;;;5063071;28;19920;-74
2022/11/24 09:11:04;;;;;;;;;;;18.00;45.30;16.70;100447.00;;;;5058634;28;19943;-74
2022/11/24 09:13:30;;;;;;;;;;;18.00;45.30;16.70;100446.00;;;;5042679;28;19912;-74
2022/11/24 09:15:55;;;;;;;;;;;18.00;45.30;16.80;100448.00;;;;5063778;28;19938;-74
2022/11/24 09:18:21;;;;;;;;;;;18.00;45.30;16.70;100450.00;;;;5061433;28;19923;-74
2022/11/24 09:20:47;;;;;;;;;;;18.00;45.30;16.70;100455.00;;;;5059337;28;19916;-74
2022/11/24 09:23:13;;;;;;;;;;;18.10;45.30;16.70;100462.00;;;;5055386;28;20304;-74
2022/11/24 09:25:39;;;;;;;;;;;18.00;45.30;16.70;100462.00;;;;5055105;28;19916;-74
2022/11/24 09:28:04;;;;;;;;;;;18.10;45.30;16.70;100467.00;;;;5058608;28;19932;-74
2022/11/24 09:30:30;;;;;;;;;;;18.00;45.30;16.70;100474.00;;;;5064758;28;19912;-74
2022/11/24 09:32:56;;;;;;;;;;;18.00;45.30;16.70;100479.00;;;;5063291;28;19939;-74
2022/11/24 09:35:21;;;;;;;;;;;18.00;45.30;16.70;100482.00;;;;5045099;28;19919;-74
2022/11/24 09:37:47;;;;;;;;;;;18.10;45.40;16.70;100480.00;;;;5060473;28;19913;-74
2022/11/24 09:40:13;;;;;;;;;;;18.00;45.30;16.70;100483.00;;;;5058165;28;20374;-74
2022/11/24 09:42:42;;;;;;;;;;;18.00;45.40;16.70;100483.00;;;;5025942;28;19939;-75
2022/11/24 09:45:41;;;;;;;;;;;18.00;45.40;16.70;100481.00;;;;5060538;28;20324;-74
2022/11/24 09:48:13;;;;;;;;;;;18.00;45.50;16.60;100478.00;;;;5059083;28;20728;-74
2022/11/24 09:50:38;;;;;;;;;;;18.00;45.50;16.60;100489.00;;;;5044363;28;19933;-74
2022/11/24 09:53:13;;;;;;;;;;;18.00;45.50;16.60;100488.00;;;;5056594;28;19909;-74
2022/11/24 09:55:49;;;;;;;;;;;17.90;45.40;16.60;100486.00;;;;5047953;28;19916;-74
2022/11/24 09:58:36;;;;;;;;;;;18.00;45.50;16.60;100496.00;;;;5059574;28;20437;-74
2022/11/24 10:01:06;;;;;;;;;;;18.00;45.50;16.60;100493.00;;;;5043800;28;19928;-75
2022/11/24 10:03:34;;;;;;;;;;;17.90;45.50;16.60;100499.00;;;;5050573;28;19912;-74
2022/11/24 10:06:02;;;;;;;;;;;17.90;45.50;16.60;100495.00;;;;5038390;28;20270;-74
2022/11/24 10:08:36;;;;;;;;;;;17.90;45.60;16.70;100490.00;;;;5047003;28;20612;-74
2022/11/24 10:11:04;;;;;;;;;;;17.90;45.50;16.60;100495.00;;;;5061346;28;20521;-73
2022/11/24 10:14:00;;;;;;;;;;;17.90;45.50;16.70;100494.00;;;;5049014;28;19912;-74
2022/11/24 10:16:54;;;;;;;;;;;17.90;45.50;16.70;100501.00;;;;5042790;28;20351;-74
2022/11/24 10:19:47;;;;;;;;;;;17.90;45.60;16.70;100507.00;;;;5038623;28;19916;-74
2022/11/24 10:22:34;;;;;;;;;;;17.90;45.60;16.60;100523.00;;;;5061348;28;19986;-74
2022/11/24 10:25:14;;;;;;;;;;;17.90;45.60;16.70;100528.00;;;;5044543;28;19978;-73
2022/11/24 10:27:44;;;;;;;;;;;17.90;45.60;16.70;100525.00;;;;5058602;28;19928;-73
2022/11/24 10:30:18;;;;;;;;;;;18.00;45.70;16.70;100527.00;;;;5034258;28;20282;-74
2022/11/24 10:32:48;;;;;;;;;;;17.90;45.70;16.70;100532.00;;;;5045668;28;19920;-73
2022/11/24 10:35:19;;;;;;;;;;;18.00;45.70;16.70;100543.00;;;;5061732;28;19916;-73
2022/11/24 10:37:56;;;;;;;;;;;17.90;45.70;16.70;100541.00;;;;5044920;28;19912;-74
2022/11/24 10:40:40;;;;;;;;;;;17.90;45.60;16.70;100541.00;;;;5040668;28;19913;-74
2022/11/24 10:43:09;;;;;;;;;;;17.90;45.60;16.60;100553.00;;;;5044783;28;19909;-74
2022/11/24 10:45:36;;;;;;;;;;;17.90;45.60;16.60;100542.00;;;;5037490;28;19924;-74
2022/11/24 10:48:03;;;;;;;;;;;17.90;45.60;16.70;100553.00;;;;5045662;28;19928;-74
2022/11/24 10:50:34;;;;;;;;;;;17.90;45.60;16.60;100547.00;;;;5058375;28;19959;-74
2022/11/24 10:53:12;;;;;;;;;;;17.90;45.60;16.60;100554.00;;;;5044696;28;19921;-74
2022/11/24 10:55:53;;;;;;;;;;;18.00;45.70;16.60;100558.00;;;;5058549;28;20289;-74
2022/11/24 10:58:20;;;;;;;;;;;17.90;45.70;16.60;100561.00;;;;5062516;28;19995;-74
2022/11/24 11:00:46;;;;;;;;;;;17.90;45.60;16.60;100567.00;;;;5032586;28;19920;-74
2022/11/24 11:03:20;;;;;;;;;;;17.90;45.70;16.60;100557.00;;;;5061179;28;19962;-74
2022/11/24 11:06:11;;;;;;;;;;;17.90;45.70;16.60;100569.00;;;;5041719;28;20277;-74
2022/11/24 11:08:36;;;;;;;;;;;17.90;45.70;16.60;100565.00;;;;5054395;28;19971;-74
2022/11/24 11:11:22;;;;;;;;;;;17.90;45.80;16.60;100573.00;;;;5044549;28;19920;-74
2022/11/24 11:14:09;;;;;;;;;;;17.90;45.70;16.60;100586.00;;;;5055907;28;19920;-74
2022/11/24 11:16:36;;;;;;;;;;;17.90;45.70;16.60;100582.00;;;;5065498;28;19923;-74
2022/11/24 11:19:25;;;;;;;;;;;17.90;45.70;16.60;100593.00;;;;5057342;28;19916;-74
2022/11/24 11:22:21;;;;;;;;;;;17.90;45.80;16.60;100599.00;;;;5063306;28;19944;-74
2022/11/24 11:24:47;;;;;;;;;;;17.90;45.80;16.60;100604.00;;;;5048705;28;20270;-74
2022/11/24 11:27:20;;;;;;;;;;;17.90;45.80;16.60;100590.00;;;;5057699;28;19916;-74
2022/11/24 11:29:46;;;;;;;;;;;17.90;45.90;16.60;100587.00;;;;5046391;28;19927;-74
2022/11/24 11:32:17;;;;;;;;;;;17.90;45.90;16.60;100593.00;;;;5037021;28;19912;-74
2022/11/24 11:34:43;;;;;;;;;;;17.90;45.90;16.60;100600.00;;;;5042160;28;20373;-74
2022/11/24 11:37:08;;;;;;;;;;;17.90;45.90;16.60;100609.00;;;;5042132;28;19919;-74
2022/11/24 11:39:35;;;;;;;;;;;18.10;45.90;16.60;100607.00;;;;5045630;28;20357;-74
2022/11/24 11:42:25;;;;;;;;;;;17.90;45.90;16.60;100611.00;;;;5060296;28;19912;-74
2022/11/24 11:45:04;;;;;;;;;;;17.90;45.90;16.60;100618.00;;;;5043427;28;20366;-74
2022/11/24 11:48:02;;;;;;;;;;;17.90;45.90;16.60;100615.00;;;;5049229;28;19920;-74
2022/11/24 11:50:42;;;;;;;;;;;17.90;46.00;16.50;100606.00;;;;5032845;28;20362;-74
2022/11/24 11:53:23;;;;;;;;;;;17.90;46.00;16.50;100600.00;;;;5034003;28;19917;-74
2022/11/24 11:56:01;;;;;;;;;;;17.90;45.90;16.60;100607.00;;;;5052835;28;19974;-74